Hlavní strana
METAR-TAF:

METAR-TAF

Letiště :

Letiště Maribor

Maribor, Slovinsko

zeměpisná šířka: 46-29N, zeměpisná délka: 015-41E, výška: 264 m

Aktuální stav počasí

Zpráva byla vytvořena před 21 minutami, v 16:30 UTC
Severní vítr 5 kt
Teplota 5°C
Vlhkost vzduchu 75%
Tlak 1030 hPa
Viditelnost 10 km a více
Skoro jasno ve výšce 3300 ft

METAR: LJMB 161630Z 01005KT 9999 FEW033 05/01 Q1030

Čas: 17:51 (16:51 UTC)

Předpověď počasí

Zpráva byla vytvořena před 2 hodinami a 51 minutami, v 14:00 UTC
Předpověď platná od 16 v 15 UTC do 17 v 15 UTC
Severoseverovýchodní vítr 5 kt
Viditelnost 10 km a více
Skoro jasno ve výšce 3500 ft
Dočasný
od 16 v 15 UTC do 17 v 15 UTC
Severoseverovýchodní vítr 10 kt
Pravděpodobnost 40% :
Dočasný
od 16 v 15 UTC do 17 v 01 UTC
Severní vítr 10 kt
Oblačno až skoro zataženo ve výšce 3000 ft

TAF: LJMB 161400Z 1615/1715 03005KT 9999 FEW035 TEMPO 1615/1715 02010KT PROB40 TEMPO 1615/1701 01010KT BKN030

Stav a předpovědi počasí z více než 4 000 letišť (zprávy METAR a TAF).

Červené a žluté tečky na mapě představují dostupné meteorologické stanice.

Když kurzor umístíte na tečku, zobrazí se název stanice.

Pak kliknutím zobrazíte stav a předpověď počasí.

Chcete-li změnit mapu, kliknutím na zelené tlačítko se znaménkem +mapu přiblížíte, kliknutím na zelené tlačítko se znaménkem – mapu oddálíte a kliknutím na zelené šipky přejdete na sousední mapy.


METAR-TAF: